sensor_id;sensor_type;location;lat;lon;timestamp;P1;durP1;ratioP1;P2;durP2;ratioP2
24715;SDS011;12822;50.124;8.678;2023-07-29T00:00:32;11.85;;;10.43;;
24715;SDS011;12822;50.124;8.678;2023-07-29T00:02:58;13.88;;;12.07;;
24715;SDS011;12822;50.124;8.678;2023-07-29T00:05:24;13.15;;;11.52;;
24715;SDS011;12822;50.124;8.678;2023-07-29T00:07:50;12.57;;;11.27;;
24715;SDS011;12822;50.124;8.678;2023-07-29T00:10:16;13.70;;;10.82;;
24715;SDS011;12822;50.124;8.678;2023-07-29T00:12:42;11.45;;;10.25;;
24715;SDS011;12822;50.124;8.678;2023-07-29T00:15:08;16.83;;;9.85;;
24715;SDS011;12822;50.124;8.678;2023-07-29T00:17:34;11.40;;;9.23;;
24715;SDS011;12822;50.124;8.678;2023-07-29T00:20:00;12.10;;;9.90;;
24715;SDS011;12822;50.124;8.678;2023-07-29T00:22:27;10.10;;;9.02;;
24715;SDS011;12822;50.124;8.678;2023-07-29T00:24:53;9.82;;;8.82;;
24715;SDS011;12822;50.124;8.678;2023-07-29T00:27:20;10.43;;;9.13;;
24715;SDS011;12822;50.124;8.678;2023-07-29T00:29:46;13.38;;;7.65;;
24715;SDS011;12822;50.124;8.678;2023-07-29T00:32:12;9.82;;;8.18;;
24715;SDS011;12822;50.124;8.678;2023-07-29T00:34:38;9.20;;;7.78;;
24715;SDS011;12822;50.124;8.678;2023-07-29T00:37:04;10.48;;;7.78;;
24715;SDS011;12822;50.124;8.678;2023-07-29T00:39:31;10.65;;;8.07;;
24715;SDS011;12822;50.124;8.678;2023-07-29T00:41:57;8.63;;;7.70;;
24715;SDS011;12822;50.124;8.678;2023-07-29T00:44:23;11.50;;;7.88;;
24715;SDS011;12822;50.124;8.678;2023-07-29T00:46:52;10.32;;;9.10;;
24715;SDS011;12822;50.124;8.678;2023-07-29T00:49:18;12.35;;;9.13;;
24715;SDS011;12822;50.124;8.678;2023-07-29T00:51:44;15.10;;;9.32;;
24715;SDS011;12822;50.124;8.678;2023-07-29T00:54:11;13.20;;;8.90;;
24715;SDS011;12822;50.124;8.678;2023-07-29T00:56:37;11.90;;;9.43;;
24715;SDS011;12822;50.124;8.678;2023-07-29T00:59:03;13.32;;;9.00;;
24715;SDS011;12822;50.124;8.678;2023-07-29T01:01:29;12.77;;;9.68;;
24715;SDS011;12822;50.124;8.678;2023-07-29T01:03:56;10.18;;;9.13;;
24715;SDS011;12822;50.124;8.678;2023-07-29T01:06:37;14.85;;;9.43;;
24715;SDS011;12822;50.124;8.678;2023-07-29T01:09:29;9.07;;;8.07;;
24715;SDS011;12822;50.124;8.678;2023-07-29T01:14:39;11.10;;;8.23;;
24715;SDS011;12822;50.124;8.678;2023-07-29T01:17:08;15.40;;;8.60;;
24715;SDS011;12822;50.124;8.678;2023-07-29T01:22:20;13.32;;;8.80;;
24715;SDS011;12822;50.124;8.678;2023-07-29T01:24:47;9.80;;;8.00;;
24715;SDS011;12822;50.124;8.678;2023-07-29T01:27:13;9.98;;;8.05;;
24715;SDS011;12822;50.124;8.678;2023-07-29T01:29:39;9.15;;;7.90;;
24715;SDS011;12822;50.124;8.678;2023-07-29T01:32:16;14.75;;;8.63;;
24715;SDS011;12822;50.124;8.678;2023-07-29T01:34:52;10.65;;;8.18;;
24715;SDS011;12822;50.124;8.678;2023-07-29T01:37:22;13.25;;;8.05;;
24715;SDS011;12822;50.124;8.678;2023-07-29T01:39:50;8.77;;;6.65;;
24715;SDS011;12822;50.124;8.678;2023-07-29T01:42:16;12.05;;;7.53;;
24715;SDS011;12822;50.124;8.678;2023-07-29T01:44:43;10.98;;;7.55;;
24715;SDS011;12822;50.124;8.678;2023-07-29T01:47:09;10.63;;;6.65;;
24715;SDS011;12822;50.124;8.678;2023-07-29T01:49:36;7.82;;;6.72;;
24715;SDS011;12822;50.124;8.678;2023-07-29T01:52:02;7.53;;;6.32;;
24715;SDS011;12822;50.124;8.678;2023-07-29T01:54:28;8.77;;;6.07;;
24715;SDS011;12822;50.124;8.678;2023-07-29T01:56:54;9.73;;;6.07;;
24715;SDS011;12822;50.124;8.678;2023-07-29T01:59:20;10.80;;;5.82;;
24715;SDS011;12822;50.124;8.678;2023-07-29T02:01:46;9.63;;;5.57;;
24715;SDS011;12822;50.124;8.678;2023-07-29T02:04:13;8.35;;;5.97;;
24715;SDS011;12822;50.124;8.678;2023-07-29T02:06:39;16.00;;;5.85;;
24715;SDS011;12822;50.124;8.678;2023-07-29T02:09:05;9.60;;;5.97;;
24715;SDS011;12822;50.124;8.678;2023-07-29T02:11:31;11.95;;;5.93;;
24715;SDS011;12822;50.124;8.678;2023-07-29T02:13:57;9.70;;;5.70;;
24715;SDS011;12822;50.124;8.678;2023-07-29T02:16:23;12.38;;;5.55;;
24715;SDS011;12822;50.124;8.678;2023-07-29T02:18:49;8.48;;;5.35;;
24715;SDS011;12822;50.124;8.678;2023-07-29T02:21:16;5.78;;;4.93;;
24715;SDS011;12822;50.124;8.678;2023-07-29T02:23:42;7.72;;;5.07;;
24715;SDS011;12822;50.124;8.678;2023-07-29T02:26:08;9.45;;;4.70;;
24715;SDS011;12822;50.124;8.678;2023-07-29T02:28:34;6.28;;;4.95;;
24715;SDS011;12822;50.124;8.678;2023-07-29T02:31:14;8.82;;;4.53;;
24715;SDS011;12822;50.124;8.678;2023-07-29T02:33:41;10.27;;;4.53;;
24715;SDS011;12822;50.124;8.678;2023-07-29T02:36:07;11.18;;;4.47;;
24715;SDS011;12822;50.124;8.678;2023-07-29T02:38:33;8.68;;;4.78;;
24715;SDS011;12822;50.124;8.678;2023-07-29T02:40:59;6.03;;;3.72;;
24715;SDS011;12822;50.124;8.678;2023-07-29T02:43:25;9.07;;;5.05;;
24715;SDS011;12822;50.124;8.678;2023-07-29T02:45:51;6.80;;;4.60;;
24715;SDS011;12822;50.124;8.678;2023-07-29T02:48:17;10.55;;;4.20;;
24715;SDS011;12822;50.124;8.678;2023-07-29T02:50:43;6.63;;;4.13;;
24715;SDS011;12822;50.124;8.678;2023-07-29T02:53:09;11.15;;;4.22;;
24715;SDS011;12822;50.124;8.678;2023-07-29T02:55:35;6.75;;;4.35;;
24715;SDS011;12822;50.124;8.678;2023-07-29T02:58:01;6.38;;;3.63;;
24715;SDS011;12822;50.124;8.678;2023-07-29T03:00:27;8.10;;;4.30;;
24715;SDS011;12822;50.124;8.678;2023-07-29T03:02:56;8.32;;;3.95;;
24715;SDS011;12822;50.124;8.678;2023-07-29T03:05:22;7.10;;;3.90;;
24715;SDS011;12822;50.124;8.678;2023-07-29T03:07:48;7.97;;;4.05;;
24715;SDS011;12822;50.124;8.678;2023-07-29T03:10:14;5.78;;;4.47;;
24715;SDS011;12822;50.124;8.678;2023-07-29T03:12:40;4.63;;;3.70;;
24715;SDS011;12822;50.124;8.678;2023-07-29T03:15:06;7.68;;;4.38;;
24715;SDS011;12822;50.124;8.678;2023-07-29T03:17:32;8.70;;;4.10;;
24715;SDS011;12822;50.124;8.678;2023-07-29T03:19:58;6.20;;;3.90;;
24715;SDS011;12822;50.124;8.678;2023-07-29T03:22:24;7.32;;;3.85;;
24715;SDS011;12822;50.124;8.678;2023-07-29T03:24:50;5.07;;;4.22;;
24715;SDS011;12822;50.124;8.678;2023-07-29T03:27:16;5.18;;;4.00;;
24715;SDS011;12822;50.124;8.678;2023-07-29T03:29:42;4.40;;;3.85;;
24715;SDS011;12822;50.124;8.678;2023-07-29T03:32:08;5.72;;;4.38;;
24715;SDS011;12822;50.124;8.678;2023-07-29T03:34:34;7.15;;;3.92;;
24715;SDS011;12822;50.124;8.678;2023-07-29T03:37:00;5.40;;;4.43;;
24715;SDS011;12822;50.124;8.678;2023-07-29T03:39:27;5.40;;;4.28;;
24715;SDS011;12822;50.124;8.678;2023-07-29T03:41:53;5.25;;;4.13;;
24715;SDS011;12822;50.124;8.678;2023-07-29T03:44:18;5.60;;;4.28;;
24715;SDS011;12822;50.124;8.678;2023-07-29T03:46:44;6.32;;;4.47;;
24715;SDS011;12822;50.124;8.678;2023-07-29T03:49:10;7.18;;;4.47;;
24715;SDS011;12822;50.124;8.678;2023-07-29T03:51:36;8.68;;;4.57;;
24715;SDS011;12822;50.124;8.678;2023-07-29T03:54:02;6.90;;;4.40;;
24715;SDS011;12822;50.124;8.678;2023-07-29T03:56:28;4.70;;;4.05;;
24715;SDS011;12822;50.124;8.678;2023-07-29T03:59:01;12.20;;;4.38;;
24715;SDS011;12822;50.124;8.678;2023-07-29T04:01:28;12.90;;;4.38;;
24715;SDS011;12822;50.124;8.678;2023-07-29T04:03:54;8.57;;;4.70;;
24715;SDS011;12822;50.124;8.678;2023-07-29T04:06:20;8.82;;;5.50;;
24715;SDS011;12822;50.124;8.678;2023-07-29T04:08:46;8.93;;;4.85;;
24715;SDS011;12822;50.124;8.678;2023-07-29T04:11:12;9.20;;;5.03;;
24715;SDS011;12822;50.124;8.678;2023-07-29T04:13:38;7.38;;;4.10;;
24715;SDS011;12822;50.124;8.678;2023-07-29T04:16:04;11.15;;;5.90;;
24715;SDS011;12822;50.124;8.678;2023-07-29T04:18:30;8.23;;;5.07;;
24715;SDS011;12822;50.124;8.678;2023-07-29T04:20:56;5.78;;;4.35;;
24715;SDS011;12822;50.124;8.678;2023-07-29T04:23:22;6.78;;;4.07;;
24715;SDS011;12822;50.124;8.678;2023-07-29T04:25:48;7.93;;;5.95;;
24715;SDS011;12822;50.124;8.678;2023-07-29T04:28:15;10.60;;;4.88;;
24715;SDS011;12822;50.124;8.678;2023-07-29T04:30:41;8.38;;;4.93;;
24715;SDS011;12822;50.124;8.678;2023-07-29T04:33:07;6.43;;;4.50;;
24715;SDS011;12822;50.124;8.678;2023-07-29T04:35:33;6.63;;;4.93;;
24715;SDS011;12822;50.124;8.678;2023-07-29T04:37:59;8.98;;;5.22;;
24715;SDS011;12822;50.124;8.678;2023-07-29T04:40:25;6.68;;;5.20;;
24715;SDS011;12822;50.124;8.678;2023-07-29T04:42:51;7.75;;;5.35;;
24715;SDS011;12822;50.124;8.678;2023-07-29T04:45:17;14.57;;;7.28;;
24715;SDS011;12822;50.124;8.678;2023-07-29T04:47:43;9.18;;;7.28;;
24715;SDS011;12822;50.124;8.678;2023-07-29T04:50:09;15.48;;;6.30;;
24715;SDS011;12822;50.124;8.678;2023-07-29T04:52:35;7.68;;;6.68;;
24715;SDS011;12822;50.124;8.678;2023-07-29T04:55:01;8.90;;;6.57;;
24715;SDS011;12822;50.124;8.678;2023-07-29T04:57:27;8.70;;;6.20;;
24715;SDS011;12822;50.124;8.678;2023-07-29T04:59:54;9.75;;;6.00;;
24715;SDS011;12822;50.124;8.678;2023-07-29T05:02:20;7.95;;;6.20;;
24715;SDS011;12822;50.124;8.678;2023-07-29T05:04:46;7.43;;;6.20;;
24715;SDS011;12822;50.124;8.678;2023-07-29T05:07:12;9.85;;;6.45;;
24715;SDS011;12822;50.124;8.678;2023-07-29T05:09:38;9.02;;;6.47;;
24715;SDS011;12822;50.124;8.678;2023-07-29T05:12:04;12.82;;;7.05;;
24715;SDS011;12822;50.124;8.678;2023-07-29T05:14:30;11.50;;;7.22;;
24715;SDS011;12822;50.124;8.678;2023-07-29T05:16:56;10.10;;;6.72;;
24715;SDS011;12822;50.124;8.678;2023-07-29T05:19:22;13.35;;;6.72;;
24715;SDS011;12822;50.124;8.678;2023-07-29T05:21:48;8.20;;;6.38;;
24715;SDS011;12822;50.124;8.678;2023-07-29T05:24:14;8.55;;;5.70;;
24715;SDS011;12822;50.124;8.678;2023-07-29T05:26:40;9.23;;;5.50;;
24715;SDS011;12822;50.124;8.678;2023-07-29T05:29:06;9.68;;;5.15;;
24715;SDS011;12822;50.124;8.678;2023-07-29T05:31:32;6.10;;;4.72;;
24715;SDS011;12822;50.124;8.678;2023-07-29T05:33:58;9.75;;;5.28;;
24715;SDS011;12822;50.124;8.678;2023-07-29T05:36:24;6.40;;;4.82;;
24715;SDS011;12822;50.124;8.678;2023-07-29T05:38:51;9.68;;;4.90;;
24715;SDS011;12822;50.124;8.678;2023-07-29T05:41:17;5.97;;;4.60;;
24715;SDS011;12822;50.124;8.678;2023-07-29T05:43:43;11.98;;;5.05;;
24715;SDS011;12822;50.124;8.678;2023-07-29T05:46:10;8.73;;;4.70;;
24715;SDS011;12822;50.124;8.678;2023-07-29T05:48:36;7.75;;;5.65;;
24715;SDS011;12822;50.124;8.678;2023-07-29T05:51:02;8.10;;;6.00;;
24715;SDS011;12822;50.124;8.678;2023-07-29T05:53:30;8.88;;;5.70;;
24715;SDS011;12822;50.124;8.678;2023-07-29T05:55:56;10.13;;;6.15;;
24715;SDS011;12822;50.124;8.678;2023-07-29T05:58:22;8.45;;;5.72;;
24715;SDS011;12822;50.124;8.678;2023-07-29T06:00:48;7.65;;;5.47;;
24715;SDS011;12822;50.124;8.678;2023-07-29T06:03:14;10.48;;;6.10;;
24715;SDS011;12822;50.124;8.678;2023-07-29T06:05:40;7.72;;;5.60;;
24715;SDS011;12822;50.124;8.678;2023-07-29T06:08:06;6.88;;;5.60;;
24715;SDS011;12822;50.124;8.678;2023-07-29T06:10:33;7.60;;;5.50;;
24715;SDS011;12822;50.124;8.678;2023-07-29T06:12:59;8.05;;;5.90;;
24715;SDS011;12822;50.124;8.678;2023-07-29T06:15:25;10.95;;;6.00;;
24715;SDS011;12822;50.124;8.678;2023-07-29T06:17:51;8.52;;;4.93;;
24715;SDS011;12822;50.124;8.678;2023-07-29T06:20:17;8.98;;;5.35;;
24715;SDS011;12822;50.124;8.678;2023-07-29T06:22:43;12.23;;;5.65;;
24715;SDS011;12822;50.124;8.678;2023-07-29T06:25:09;8.25;;;4.95;;
24715;SDS011;12822;50.124;8.678;2023-07-29T06:27:35;8.88;;;5.63;;
24715;SDS011;12822;50.124;8.678;2023-07-29T06:30:01;7.80;;;5.95;;
24715;SDS011;12822;50.124;8.678;2023-07-29T06:32:27;8.32;;;5.68;;
24715;SDS011;12822;50.124;8.678;2023-07-29T06:34:53;7.85;;;5.75;;
24715;SDS011;12822;50.124;8.678;2023-07-29T06:37:19;9.73;;;6.47;;
24715;SDS011;12822;50.124;8.678;2023-07-29T06:39:45;8.30;;;7.13;;
24715;SDS011;12822;50.124;8.678;2023-07-29T06:42:11;8.93;;;6.40;;
24715;SDS011;12822;50.124;8.678;2023-07-29T06:44:38;6.72;;;4.78;;
24715;SDS011;12822;50.124;8.678;2023-07-29T06:47:04;5.35;;;4.45;;
24715;SDS011;12822;50.124;8.678;2023-07-29T06:49:30;6.90;;;4.32;;
24715;SDS011;12822;50.124;8.678;2023-07-29T06:51:56;4.43;;;3.67;;
24715;SDS011;12822;50.124;8.678;2023-07-29T06:54:24;4.80;;;3.55;;
24715;SDS011;12822;50.124;8.678;2023-07-29T06:56:51;4.03;;;3.20;;
24715;SDS011;12822;50.124;8.678;2023-07-29T06:59:17;4.93;;;3.17;;
24715;SDS011;12822;50.124;8.678;2023-07-29T07:01:43;4.63;;;2.97;;
24715;SDS011;12822;50.124;8.678;2023-07-29T07:04:09;9.77;;;5.03;;
24715;SDS011;12822;50.124;8.678;2023-07-29T07:06:35;4.13;;;3.72;;
24715;SDS011;12822;50.124;8.678;2023-07-29T07:09:01;6.85;;;5.05;;
24715;SDS011;12822;50.124;8.678;2023-07-29T07:11:27;6.22;;;4.93;;
24715;SDS011;12822;50.124;8.678;2023-07-29T07:13:53;8.07;;;6.93;;
24715;SDS011;12822;50.124;8.678;2023-07-29T07:16:19;7.82;;;7.03;;
24715;SDS011;12822;50.124;8.678;2023-07-29T07:18:46;10.77;;;7.57;;
24715;SDS011;12822;50.124;8.678;2023-07-29T07:21:11;9.13;;;7.88;;
24715;SDS011;12822;50.124;8.678;2023-07-29T07:23:40;9.52;;;8.55;;
24715;SDS011;12822;50.124;8.678;2023-07-29T07:26:06;11.65;;;7.88;;
24715;SDS011;12822;50.124;8.678;2023-07-29T07:28:32;11.38;;;7.70;;
24715;SDS011;12822;50.124;8.678;2023-07-29T07:30:59;11.88;;;7.32;;
24715;SDS011;12822;50.124;8.678;2023-07-29T07:33:25;9.27;;;7.32;;
24715;SDS011;12822;50.124;8.678;2023-07-29T07:35:51;11.38;;;7.35;;
24715;SDS011;12822;50.124;8.678;2023-07-29T07:38:17;10.95;;;7.47;;
24715;SDS011;12822;50.124;8.678;2023-07-29T07:40:43;10.88;;;6.78;;
24715;SDS011;12822;50.124;8.678;2023-07-29T07:43:11;8.32;;;6.35;;
24715;SDS011;12822;50.124;8.678;2023-07-29T07:45:37;9.73;;;6.60;;
24715;SDS011;12822;50.124;8.678;2023-07-29T07:48:03;8.15;;;6.60;;
24715;SDS011;12822;50.124;8.678;2023-07-29T07:50:29;7.63;;;6.65;;
24715;SDS011;12822;50.124;8.678;2023-07-29T07:52:55;13.07;;;7.30;;
24715;SDS011;12822;50.124;8.678;2023-07-29T07:55:21;6.28;;;5.50;;
24715;SDS011;12822;50.124;8.678;2023-07-29T07:57:47;9.30;;;6.18;;
24715;SDS011;12822;50.124;8.678;2023-07-29T08:00:13;11.10;;;6.32;;
24715;SDS011;12822;50.124;8.678;2023-07-29T08:02:40;7.32;;;5.72;;
24715;SDS011;12822;50.124;8.678;2023-07-29T08:05:06;6.85;;;5.75;;
24715;SDS011;12822;50.124;8.678;2023-07-29T08:07:33;8.50;;;5.70;;
24715;SDS011;12822;50.124;8.678;2023-07-29T08:09:59;9.48;;;6.00;;
24715;SDS011;12822;50.124;8.678;2023-07-29T08:12:25;12.43;;;6.93;;
24715;SDS011;12822;50.124;8.678;2023-07-29T08:14:51;9.23;;;6.47;;
24715;SDS011;12822;50.124;8.678;2023-07-29T08:17:17;11.00;;;7.00;;
24715;SDS011;12822;50.124;8.678;2023-07-29T08:19:43;9.15;;;6.40;;
24715;SDS011;12822;50.124;8.678;2023-07-29T08:22:09;8.85;;;5.72;;
24715;SDS011;12822;50.124;8.678;2023-07-29T08:24:35;6.43;;;4.90;;
24715;SDS011;12822;50.124;8.678;2023-07-29T08:27:01;5.85;;;4.45;;
24715;SDS011;12822;50.124;8.678;2023-07-29T08:29:27;9.95;;;4.20;;
24715;SDS011;12822;50.124;8.678;2023-07-29T08:31:53;7.32;;;3.80;;
24715;SDS011;12822;50.124;8.678;2023-07-29T08:34:20;5.97;;;3.00;;
24715;SDS011;12822;50.124;8.678;2023-07-29T08:36:46;6.47;;;3.15;;
24715;SDS011;12822;50.124;8.678;2023-07-29T08:39:12;4.28;;;2.95;;
24715;SDS011;12822;50.124;8.678;2023-07-29T08:42:20;9.70;;;3.03;;
24715;SDS011;12822;50.124;8.678;2023-07-29T08:44:31;3.25;;;2.53;;
24715;SDS011;12822;50.124;8.678;2023-07-29T08:47:01;5.82;;;2.30;;
24715;SDS011;12822;50.124;8.678;2023-07-29T08:49:27;4.03;;;2.22;;
24715;SDS011;12822;50.124;8.678;2023-07-29T08:51:54;5.75;;;2.63;;
24715;SDS011;12822;50.124;8.678;2023-07-29T08:54:20;3.30;;;2.30;;
24715;SDS011;12822;50.124;8.678;2023-07-29T08:56:47;2.55;;;1.95;;
24715;SDS011;12822;50.124;8.678;2023-07-29T08:59:13;5.45;;;1.90;;
24715;SDS011;12822;50.124;8.678;2023-07-29T09:01:39;3.47;;;1.73;;
24715;SDS011;12822;50.124;8.678;2023-07-29T09:04:05;3.97;;;1.67;;
24715;SDS011;12822;50.124;8.678;2023-07-29T09:06:31;5.03;;;1.60;;
24715;SDS011;12822;50.124;8.678;2023-07-29T09:08:58;5.70;;;1.70;;
24715;SDS011;12822;50.124;8.678;2023-07-29T09:11:24;2.75;;;1.58;;
24715;SDS011;12822;50.124;8.678;2023-07-29T09:13:50;2.65;;;1.65;;
24715;SDS011;12822;50.124;8.678;2023-07-29T09:16:17;5.68;;;1.30;;
24715;SDS011;12822;50.124;8.678;2023-07-29T09:18:43;2.17;;;1.38;;
24715;SDS011;12822;50.124;8.678;2023-07-29T09:21:09;3.35;;;1.20;;
24715;SDS011;12822;50.124;8.678;2023-07-29T09:23:40;4.32;;;1.20;;
24715;SDS011;12822;50.124;8.678;2023-07-29T09:26:06;2.40;;;1.30;;
24715;SDS011;12822;50.124;8.678;2023-07-29T09:28:37;1.73;;;1.10;;
24715;SDS011;12822;50.124;8.678;2023-07-29T09:31:03;1.67;;;0.90;;
24715;SDS011;12822;50.124;8.678;2023-07-29T09:33:32;2.15;;;0.80;;
24715;SDS011;12822;50.124;8.678;2023-07-29T09:36:01;1.50;;;1.13;;
24715;SDS011;12822;50.124;8.678;2023-07-29T09:38:28;3.50;;;1.00;;
24715;SDS011;12822;50.124;8.678;2023-07-29T09:40:55;2.33;;;1.10;;
24715;SDS011;12822;50.124;8.678;2023-07-29T09:43:24;1.00;;;0.90;;
24715;SDS011;12822;50.124;8.678;2023-07-29T09:45:51;2.08;;;0.90;;
24715;SDS011;12822;50.124;8.678;2023-07-29T09:48:19;1.35;;;0.90;;
24715;SDS011;12822;50.124;8.678;2023-07-29T09:50:48;1.80;;;0.95;;
24715;SDS011;12822;50.124;8.678;2023-07-29T09:53:14;1.75;;;1.13;;
24715;SDS011;12822;50.124;8.678;2023-07-29T09:55:40;1.33;;;1.10;;
24715;SDS011;12822;50.124;8.678;2023-07-29T09:58:11;1.30;;;0.82;;
24715;SDS011;12822;50.124;8.678;2023-07-29T10:00:37;0.60;;;0.60;;
24715;SDS011;12822;50.124;8.678;2023-07-29T10:03:05;3.90;;;1.05;;
24715;SDS011;12822;50.124;8.678;2023-07-29T10:05:32;1.38;;;0.80;;
24715;SDS011;12822;50.124;8.678;2023-07-29T10:08:00;4.97;;;0.98;;
24715;SDS011;12822;50.124;8.678;2023-07-29T10:10:27;3.13;;;0.82;;
24715;SDS011;12822;50.124;8.678;2023-07-29T10:12:54;1.13;;;1.00;;
24715;SDS011;12822;50.124;8.678;2023-07-29T10:15:23;1.88;;;1.27;;
24715;SDS011;12822;50.124;8.678;2023-07-29T10:17:50;2.03;;;1.05;;
24715;SDS011;12822;50.124;8.678;2023-07-29T10:20:17;1.83;;;0.90;;
24715;SDS011;12822;50.124;8.678;2023-07-29T10:22:43;3.03;;;1.00;;
24715;SDS011;12822;50.124;8.678;2023-07-29T10:25:21;3.33;;;1.02;;
24715;SDS011;12822;50.124;8.678;2023-07-29T10:27:58;3.28;;;0.90;;
24715;SDS011;12822;50.124;8.678;2023-07-29T10:30:26;2.35;;;1.30;;
24715;SDS011;12822;50.124;8.678;2023-07-29T10:32:54;1.83;;;1.00;;
24715;SDS011;12822;50.124;8.678;2023-07-29T10:35:20;1.38;;;0.90;;
24715;SDS011;12822;50.124;8.678;2023-07-29T10:37:46;1.42;;;1.13;;
24715;SDS011;12822;50.124;8.678;2023-07-29T10:40:15;0.73;;;0.73;;
24715;SDS011;12822;50.124;8.678;2023-07-29T10:42:58;1.38;;;0.90;;
24715;SDS011;12822;50.124;8.678;2023-07-29T10:45:25;2.03;;;1.05;;
24715;SDS011;12822;50.124;8.678;2023-07-29T10:47:51;1.00;;;0.95;;
24715;SDS011;12822;50.124;8.678;2023-07-29T10:50:18;1.15;;;1.00;;
24715;SDS011;12822;50.124;8.678;2023-07-29T10:52:46;3.03;;;1.27;;
24715;SDS011;12822;50.124;8.678;2023-07-29T10:55:27;4.20;;;1.20;;
24715;SDS011;12822;50.124;8.678;2023-07-29T10:58:13;4.60;;;1.40;;
24715;SDS011;12822;50.124;8.678;2023-07-29T11:00:41;1.60;;;1.00;;
24715;SDS011;12822;50.124;8.678;2023-07-29T11:03:08;2.50;;;1.33;;
24715;SDS011;12822;50.124;8.678;2023-07-29T11:08:20;1.10;;;0.95;;
24715;SDS011;12822;50.124;8.678;2023-07-29T11:10:59;1.67;;;1.10;;
24715;SDS011;12822;50.124;8.678;2023-07-29T11:13:27;3.70;;;1.33;;
24715;SDS011;12822;50.124;8.678;2023-07-29T11:15:54;1.63;;;1.20;;
24715;SDS011;12822;50.124;8.678;2023-07-29T11:18:21;3.00;;;1.10;;
24715;SDS011;12822;50.124;8.678;2023-07-29T11:20:47;2.05;;;1.25;;
24715;SDS011;12822;50.124;8.678;2023-07-29T11:23:13;2.55;;;1.42;;
24715;SDS011;12822;50.124;8.678;2023-07-29T11:25:39;1.35;;;1.20;;
24715;SDS011;12822;50.124;8.678;2023-07-29T11:28:06;3.83;;;1.30;;
24715;SDS011;12822;50.124;8.678;2023-07-29T11:30:32;4.00;;;1.45;;
24715;SDS011;12822;50.124;8.678;2023-07-29T11:32:59;3.08;;;1.45;;
24715;SDS011;12822;50.124;8.678;2023-07-29T11:35:25;1.67;;;1.25;;
24715;SDS011;12822;50.124;8.678;2023-07-29T11:37:52;2.25;;;1.40;;
24715;SDS011;12822;50.124;8.678;2023-07-29T11:40:18;1.92;;;1.13;;
24715;SDS011;12822;50.124;8.678;2023-07-29T11:42:46;1.35;;;1.15;;
24715;SDS011;12822;50.124;8.678;2023-07-29T11:45:12;1.85;;;1.08;;
24715;SDS011;12822;50.124;8.678;2023-07-29T11:47:40;3.35;;;0.98;;
24715;SDS011;12822;50.124;8.678;2023-07-29T11:50:07;2.58;;;1.05;;
24715;SDS011;12822;50.124;8.678;2023-07-29T11:52:39;1.75;;;1.08;;
24715;SDS011;12822;50.124;8.678;2023-07-29T11:55:06;2.58;;;1.23;;
24715;SDS011;12822;50.124;8.678;2023-07-29T11:57:34;1.23;;;0.90;;
24715;SDS011;12822;50.124;8.678;2023-07-29T12:00:01;1.50;;;0.82;;
24715;SDS011;12822;50.124;8.678;2023-07-29T12:02:28;1.20;;;1.00;;
24715;SDS011;12822;50.124;8.678;2023-07-29T12:04:54;1.90;;;1.00;;
24715;SDS011;12822;50.124;8.678;2023-07-29T12:07:20;2.55;;;1.20;;
24715;SDS011;12822;50.124;8.678;2023-07-29T12:09:46;4.93;;;1.13;;
24715;SDS011;12822;50.124;8.678;2023-07-29T12:12:13;3.50;;;1.20;;
24715;SDS011;12822;50.124;8.678;2023-07-29T12:14:43;2.92;;;1.20;;
24715;SDS011;12822;50.124;8.678;2023-07-29T12:17:09;2.78;;;1.10;;
24715;SDS011;12822;50.124;8.678;2023-07-29T12:19:36;1.98;;;1.30;;
24715;SDS011;12822;50.124;8.678;2023-07-29T12:22:02;1.15;;;1.00;;
24715;SDS011;12822;50.124;8.678;2023-07-29T12:24:32;1.85;;;1.30;;
24715;SDS011;12822;50.124;8.678;2023-07-29T12:26:58;3.03;;;1.30;;
24715;SDS011;12822;50.124;8.678;2023-07-29T12:29:24;2.90;;;1.27;;
24715;SDS011;12822;50.124;8.678;2023-07-29T12:31:57;1.48;;;1.20;;
24715;SDS011;12822;50.124;8.678;2023-07-29T12:34:24;3.30;;;1.38;;
24715;SDS011;12822;50.124;8.678;2023-07-29T12:36:51;1.60;;;1.17;;
24715;SDS011;12822;50.124;8.678;2023-07-29T12:39:19;3.63;;;1.17;;
24715;SDS011;12822;50.124;8.678;2023-07-29T12:41:45;1.48;;;1.17;;
24715;SDS011;12822;50.124;8.678;2023-07-29T12:44:11;1.98;;;1.20;;
24715;SDS011;12822;50.124;8.678;2023-07-29T12:46:37;3.95;;;1.30;;
24715;SDS011;12822;50.124;8.678;2023-07-29T12:49:03;1.55;;;1.27;;
24715;SDS011;12822;50.124;8.678;2023-07-29T12:51:29;1.52;;;1.38;;
24715;SDS011;12822;50.124;8.678;2023-07-29T12:53:55;2.08;;;1.40;;
24715;SDS011;12822;50.124;8.678;2023-07-29T12:56:21;3.88;;;1.50;;
24715;SDS011;12822;50.124;8.678;2023-07-29T12:58:47;1.98;;;1.40;;
24715;SDS011;12822;50.124;8.678;2023-07-29T13:01:14;2.08;;;1.35;;
24715;SDS011;12822;50.124;8.678;2023-07-29T13:03:43;1.80;;;1.40;;
24715;SDS011;12822;50.124;8.678;2023-07-29T13:06:09;2.13;;;1.45;;
24715;SDS011;12822;50.124;8.678;2023-07-29T13:08:35;3.53;;;1.40;;
24715;SDS011;12822;50.124;8.678;2023-07-29T13:11:01;3.72;;;1.30;;
24715;SDS011;12822;50.124;8.678;2023-07-29T13:13:27;3.65;;;1.40;;
24715;SDS011;12822;50.124;8.678;2023-07-29T13:15:53;2.38;;;1.50;;
24715;SDS011;12822;50.124;8.678;2023-07-29T13:18:19;1.70;;;1.35;;
24715;SDS011;12822;50.124;8.678;2023-07-29T13:20:45;4.85;;;1.63;;
24715;SDS011;12822;50.124;8.678;2023-07-29T13:23:11;1.42;;;1.30;;
24715;SDS011;12822;50.124;8.678;2023-07-29T13:25:37;3.58;;;1.60;;
24715;SDS011;12822;50.124;8.678;2023-07-29T13:28:03;1.70;;;1.60;;
24715;SDS011;12822;50.124;8.678;2023-07-29T13:30:29;2.40;;;1.50;;
24715;SDS011;12822;50.124;8.678;2023-07-29T13:32:55;1.20;;;1.10;;
24715;SDS011;12822;50.124;8.678;2023-07-29T13:35:21;3.10;;;1.58;;
24715;SDS011;12822;50.124;8.678;2023-07-29T13:37:47;2.28;;;1.60;;
24715;SDS011;12822;50.124;8.678;2023-07-29T13:40:13;2.17;;;1.40;;
24715;SDS011;12822;50.124;8.678;2023-07-29T13:42:39;4.55;;;1.50;;
24715;SDS011;12822;50.124;8.678;2023-07-29T13:45:05;2.38;;;1.35;;
24715;SDS011;12822;50.124;8.678;2023-07-29T13:47:31;2.25;;;1.30;;
24715;SDS011;12822;50.124;8.678;2023-07-29T13:49:57;1.73;;;1.38;;
24715;SDS011;12822;50.124;8.678;2023-07-29T13:52:23;1.80;;;1.30;;
24715;SDS011;12822;50.124;8.678;2023-07-29T13:54:49;2.08;;;1.25;;
24715;SDS011;12822;50.124;8.678;2023-07-29T13:57:15;3.17;;;1.35;;
24715;SDS011;12822;50.124;8.678;2023-07-29T13:59:41;2.97;;;1.27;;
24715;SDS011;12822;50.124;8.678;2023-07-29T14:02:07;2.40;;;1.30;;
24715;SDS011;12822;50.124;8.678;2023-07-29T14:04:33;2.55;;;1.40;;
24715;SDS011;12822;50.124;8.678;2023-07-29T14:06:59;2.80;;;1.50;;
24715;SDS011;12822;50.124;8.678;2023-07-29T14:09:26;5.20;;;1.60;;
24715;SDS011;12822;50.124;8.678;2023-07-29T14:11:53;2.70;;;1.10;;
24715;SDS011;12822;50.124;8.678;2023-07-29T14:14:19;4.30;;;1.45;;
24715;SDS011;12822;50.124;8.678;2023-07-29T14:16:45;1.80;;;1.20;;
24715;SDS011;12822;50.124;8.678;2023-07-29T14:19:12;3.80;;;1.80;;
24715;SDS011;12822;50.124;8.678;2023-07-29T14:21:38;2.45;;;1.60;;
24715;SDS011;12822;50.124;8.678;2023-07-29T14:24:05;1.80;;;1.50;;
24715;SDS011;12822;50.124;8.678;2023-07-29T14:26:31;2.53;;;1.60;;
24715;SDS011;12822;50.124;8.678;2023-07-29T14:28:57;2.47;;;1.42;;
24715;SDS011;12822;50.124;8.678;2023-07-29T14:31:23;2.50;;;1.58;;
24715;SDS011;12822;50.124;8.678;2023-07-29T14:33:49;2.03;;;1.50;;
24715;SDS011;12822;50.124;8.678;2023-07-29T14:36:18;2.00;;;1.60;;
24715;SDS011;12822;50.124;8.678;2023-07-29T14:38:44;2.58;;;1.33;;
24715;SDS011;12822;50.124;8.678;2023-07-29T14:41:10;3.55;;;1.50;;
24715;SDS011;12822;50.124;8.678;2023-07-29T14:43:36;2.85;;;1.60;;
24715;SDS011;12822;50.124;8.678;2023-07-29T14:46:02;3.17;;;1.40;;
24715;SDS011;12822;50.124;8.678;2023-07-29T14:48:28;2.33;;;1.40;;
24715;SDS011;12822;50.124;8.678;2023-07-29T14:50:54;1.98;;;1.48;;